Wise, Virginia
Current Conditions -  °F | °C
As of 6:55 AM on Thursday 23 Oct 2014 (Local Time) from KLNP Reporting Station
Overcast Overcast  
Wind Chill: 35°   Ceiling: 1200
Heat Index: 41°   Visibility: 10mi
Dew Point: 39°   Wind: 10mph
Humidity: 93%   Direction: 360°N
Pressure: 30.2"   Gusts: NA
Location:  36.98°N, 82.58°W
Report Text: KLNP 231055Z AUTO 36009KT 10SM OVC012 05/04 A3020 RMK AO2
Loading
Personal Weather Stations






























Interactive Weather Map
Tropical Storm Tracking
New forecast layout! Learn more

10-Day Weather Forecast

Advertisements
Track Severe Weather on mobile